This is the latest recevied weather packets stored in our database for station/object I2HLY-4. If no packets are shown the sender has not sent any weather packets the latest 10 day(s).
| Time | Temp. | Humidity | Pressure | Rain* | Wind** | Luminosity | Snow |
|---|---|---|---|---|---|---|---|
| 1777476750 | 13.89° C | 83% | 1018.3 hPa | 0 mm | - | - | - |
| 1777475849 | 13.89° C | 83% | 1018.4 hPa | 0 mm | - | - | - |
| 1777474932 | 13.89° C | 84% | 1018.4 hPa | 0 mm | - | - | - |
| 1777474031 | 13.33° C | 85% | 1018.5 hPa | 0 mm | - | - | - |
| 1777473150 | 12.78° C | 88% | 1018.4 hPa | 0 mm | - | - | - |
| 1777472243 | 12.78° C | 87% | 1018.6 hPa | 0 mm | - | - | - |
| 1777471344 | 13.33° C | 86% | 1018.6 hPa | 0 mm | - | - | - |
| 1777470445 | 13.89° C | 83% | 1018.6 hPa | 0 mm | - | - | - |
| 1777469546 | 13.89° C | 79% | 1018.6 hPa | 0 mm | - | - | - |
| 1777468649 | 14.44° C | 79% | 1018.6 hPa | 0 mm | - | - | - |
| 1777467734 | 14.44° C | 76% | 1018.6 hPa | 0 mm | - | - | - |
| 1777466831 | 15° C | 74% | 1018.8 hPa | 0 mm | - | - | - |
| 1777465931 | 15° C | 73% | 1018.6 hPa | 0 mm | - | - | - |
| 1777465034 | 15° C | 72% | 1018.6 hPa | 0 mm | - | - | - |
| 1777464132 | 15° C | 71% | 1018.8 hPa | 0 mm | - | - | - |
| 1777463235 | 15° C | 67% | 1018.8 hPa | 0 mm | - | - | - |
| 1777462333 | 15° C | 70% | 1018.8 hPa | 0 mm | - | - | - |
| 1777461431 | 14.44° C | 74% | 1019 hPa | 0 mm | - | - | - |
| 1777460535 | 13.89° C | 76% | 1019.2 hPa | 0 mm | - | - | - |
| 1777459635 | 13.33° C | 83% | 1019.1 hPa | 0 mm | - | - | - |
| 1777458738 | 12.78° C | 86% | 1019.1 hPa | 0 mm | - | - | - |
| 1777457838 | 12.78° C | 85% | 1019.2 hPa | 0 mm | - | - | - |
| 1777456934 | 12.22° C | 86% | 1019.2 hPa | 0 mm | - | - | - |
| 1777456036 | 11.67° C | 88% | 1019.2 hPa | 0 mm | - | - | - |
| 1777455136 | 11.67° C | 89% | 1019.1 hPa | 0 mm | - | - | - |
* Rain latest hour (hover to see other rain measurements)
** Current wind speed in m/s (hover to see current wind gust speed)